createdAt,value
2023-02-08T00:02:01.152Z,30.95
2023-02-08T00:04:27.572Z,30.25
2023-02-08T00:06:53.994Z,32.92
2023-02-08T00:09:20.417Z,31.88
2023-02-08T00:11:46.870Z,31.67
2023-02-08T00:14:13.323Z,30.38
2023-02-08T00:16:39.887Z,32.22
2023-02-08T00:19:06.415Z,30.83
2023-02-08T00:21:32.892Z,30.17
2023-02-08T00:23:59.304Z,28.75
2023-02-08T00:26:25.851Z,28.33
2023-02-08T00:28:52.345Z,29.90
2023-02-08T00:31:18.878Z,27.77
2023-02-08T00:33:45.411Z,29.63
2023-02-08T00:36:12.567Z,28.55
2023-02-08T00:38:39.081Z,30.00
2023-02-08T00:41:05.950Z,31.60
2023-02-08T00:43:32.420Z,32.05
2023-02-08T00:46:00.241Z,35.35
2023-02-08T00:48:27.878Z,35.90
2023-02-08T00:51:08.814Z,38.75
2023-02-08T00:53:37.969Z,38.05
2023-02-08T00:56:04.888Z,38.10
2023-02-08T00:58:31.300Z,38.78
2023-02-08T01:00:57.832Z,40.50
2023-02-08T01:03:24.815Z,40.85
2023-02-08T01:05:51.598Z,41.50
2023-02-08T01:08:20.425Z,43.17
2023-02-08T01:10:47.423Z,42.38
2023-02-08T01:13:13.870Z,42.97
2023-02-08T01:15:40.415Z,43.92
2023-02-08T01:18:06.850Z,43.40
2023-02-08T01:20:36.129Z,44.35
2023-02-08T01:23:03.632Z,42.30
2023-02-08T01:25:30.324Z,42.95
2023-02-08T01:27:57.359Z,40.83
2023-02-08T01:30:24.146Z,39.83
2023-02-08T01:32:50.629Z,38.63
2023-02-08T01:35:17.179Z,37.47
2023-02-08T01:37:43.606Z,38.58
2023-02-08T01:40:10.744Z,38.92
2023-02-08T01:42:37.315Z,35.63
2023-02-08T01:45:22.971Z,35.05
2023-02-08T01:47:55.067Z,35.28
2023-02-08T01:50:27.516Z,32.70
2023-02-08T01:52:54.136Z,33.65
2023-02-08T01:55:34.223Z,32.88
2023-02-08T01:58:06.391Z,32.88
2023-02-08T02:00:33.116Z,31.48
2023-02-08T02:03:01.829Z,34.67
2023-02-08T02:09:38.684Z,32.00
2023-02-08T02:12:07.669Z,31.33
2023-02-08T02:14:35.367Z,34.17
2023-02-08T02:17:01.874Z,32.15
2023-02-08T02:19:31.154Z,33.42
2023-02-08T02:22:36.052Z,32.90
2023-02-08T02:25:30.339Z,32.22
2023-02-08T02:28:33.259Z,31.42
2023-02-08T02:31:15.362Z,30.00
2023-02-08T02:33:50.960Z,32.05
2023-02-08T02:36:33.193Z,30.48
2023-02-08T02:39:05.574Z,30.85
2023-02-08T02:42:06.356Z,30.85
2023-02-08T02:44:57.276Z,30.93
2023-02-08T02:47:41.107Z,30.55
2023-02-08T02:50:21.190Z,31.92
2023-02-08T02:52:56.786Z,31.35
2023-02-08T02:55:25.896Z,31.15
2023-02-08T02:57:54.649Z,32.30
2023-02-08T03:00:25.734Z,33.80
2023-02-08T03:02:53.273Z,32.83
2023-02-08T03:05:19.771Z,31.45
2023-02-08T03:08:03.814Z,32.00
2023-02-08T03:11:02.266Z,30.05
2023-02-08T03:13:38.576Z,29.83
2023-02-08T03:16:28.486Z,32.58
2023-02-08T03:19:03.615Z,30.00
2023-02-08T03:21:56.818Z,28.80
2023-02-08T03:24:40.289Z,29.65
2023-02-08T03:27:16.497Z,29.83
2023-02-08T03:29:53.642Z,29.40
2023-02-08T03:32:41.923Z,30.15
2023-02-08T03:35:19.875Z,29.75
2023-02-08T03:40:27.347Z,29.10
2023-02-08T03:42:58.583Z,28.48
2023-02-08T03:45:49.746Z,29.10
2023-02-08T03:48:20.271Z,30.17
2023-02-08T03:50:51.575Z,30.58
2023-02-08T03:53:22.056Z,30.10
2023-02-08T03:55:53.193Z,30.43
2023-02-08T03:58:28.321Z,29.15
2023-02-08T04:01:11.540Z,28.63
2023-02-08T04:03:39.067Z,27.88
2023-02-08T04:06:05.849Z,28.38
2023-02-08T04:08:32.312Z,26.92
2023-02-08T04:10:58.947Z,26.15
2023-02-08T04:13:25.412Z,28.45
2023-02-08T04:15:51.928Z,26.90
2023-02-08T04:18:18.393Z,27.67
2023-02-08T04:20:44.880Z,25.73
2023-02-08T04:23:11.352Z,24.98
2023-02-08T04:25:37.847Z,25.52
2023-02-08T04:28:04.567Z,24.65
2023-02-08T04:30:31.088Z,25.23
2023-02-08T04:32:59.973Z,25.23
2023-02-08T04:35:26.523Z,26.23
2023-02-08T04:37:52.951Z,24.20
2023-02-08T04:40:19.568Z,25.17
2023-02-08T04:45:21.274Z,23.98
2023-02-08T04:47:47.770Z,25.40
2023-02-08T04:50:14.726Z,24.70
2023-02-08T04:52:41.301Z,25.35
2023-02-08T04:55:08.268Z,25.58
2023-02-08T04:57:34.772Z,26.17
2023-02-08T05:00:01.312Z,25.77
2023-02-08T05:02:27.828Z,26.58
2023-02-08T07:28:45.533Z,27.20
2023-02-08T07:31:14.680Z,28.30
2023-02-08T07:33:41.987Z,27.30
2023-02-08T07:36:09.042Z,27.70
2023-02-08T07:38:35.497Z,28.45
2023-02-08T07:41:08.577Z,27.10
2023-02-08T07:43:36.136Z,27.35
2023-02-08T07:46:07.969Z,25.55
2023-02-08T07:48:35.250Z,28.50
2023-02-08T07:51:02.549Z,27.02
2023-02-08T07:53:29.715Z,26.02
2023-02-08T07:55:56.188Z,26.10
2023-02-08T07:58:23.487Z,27.70
2023-02-08T08:00:49.987Z,26.33
2023-02-08T08:03:16.682Z,27.75
2023-02-08T09:52:39.341Z,30.40
2023-02-08T09:55:34.902Z,28.73
2023-02-08T09:58:05.368Z,30.65
2023-02-08T10:17:02.831Z,33.20
2023-02-08T10:19:59.553Z,32.78
2023-02-08T10:22:34.768Z,34.40
2023-02-08T10:25:16.226Z,31.23
2023-02-08T10:28:21.351Z,32.78
2023-02-08T10:30:53.615Z,34.05
2023-02-08T10:33:41.826Z,32.83
2023-02-08T10:36:21.474Z,33.28
2023-02-08T10:38:53.036Z,31.60
2023-02-08T10:44:20.780Z,30.90
2023-02-08T10:46:50.167Z,32.95
2023-02-08T10:49:25.411Z,32.85
2023-02-08T10:51:53.609Z,32.00
2023-02-08T10:54:20.073Z,31.33
2023-02-08T10:56:52.761Z,32.95
2023-02-08T10:59:27.453Z,33.42
2023-02-08T11:01:54.689Z,32.80
2023-02-08T11:04:21.467Z,33.03
2023-02-08T11:06:50.151Z,32.50
2023-02-08T11:09:29.338Z,32.17
2023-02-08T11:11:58.585Z,31.83
2023-02-08T11:14:46.804Z,29.70
2023-02-08T11:17:30.673Z,30.63
2023-02-08T11:19:59.002Z,31.77
2023-02-08T11:22:30.958Z,32.85
2023-02-08T11:25:03.979Z,33.10
2023-02-08T11:27:34.234Z,33.58
2023-02-08T11:30:13.080Z,31.70
2023-02-08T11:32:41.522Z,31.00
2023-02-08T11:35:23.075Z,29.85
2023-02-08T11:37:51.731Z,29.38
2023-02-08T11:40:31.592Z,31.00
2023-02-08T11:42:58.804Z,29.17
2023-02-08T11:45:29.850Z,31.55
2023-02-08T15:17:29.495Z,27.80
2023-02-08T15:19:56.270Z,27.63
2023-02-08T15:22:25.860Z,26.48
2023-02-08T15:24:54.878Z,26.92
2023-02-08T15:46:25.078Z,28.95
2023-02-08T15:59:28.062Z,26.08
2023-02-08T16:01:57.628Z,26.23
2023-02-08T16:04:25.755Z,26.55
2023-02-08T16:06:57.528Z,27.52
2023-02-08T16:12:06.198Z,26.50
2023-02-08T16:14:50.594Z,26.65
2023-02-08T16:17:44.374Z,25.85
2023-02-08T16:20:33.796Z,26.55
2023-02-08T16:23:03.955Z,26.10
2023-02-08T16:25:37.135Z,25.95
2023-02-08T16:28:05.896Z,25.88
2023-02-08T16:30:32.894Z,25.23
2023-02-08T16:33:06.848Z,26.17
2023-02-08T16:35:33.592Z,25.27
2023-02-08T16:40:51.344Z,26.75
2023-02-08T16:43:22.794Z,26.98
2023-02-08T16:48:56.405Z,26.58
2023-02-08T16:51:27.364Z,25.77
2023-02-08T16:53:56.610Z,26.77
2023-02-08T16:56:24.076Z,27.70
2023-02-08T16:58:50.617Z,27.02
2023-02-08T17:01:17.222Z,26.73
2023-02-08T17:03:43.857Z,27.23
2023-02-08T17:06:33.534Z,26.67
2023-02-08T17:09:01.578Z,26.50
2023-02-08T17:11:28.964Z,26.67
2023-02-08T17:13:56.126Z,32.95
2023-02-08T17:16:25.074Z,27.20
2023-02-08T17:18:52.025Z,27.15
2023-02-08T17:21:18.622Z,28.20
2023-02-08T17:23:45.917Z,29.95
2023-02-08T17:26:27.723Z,27.67
2023-02-08T17:28:56.375Z,26.90
2023-02-08T17:31:23.526Z,26.65
2023-02-08T17:33:50.233Z,25.52
2023-02-08T17:36:17.513Z,24.55
2023-02-08T17:38:46.499Z,28.38
2023-02-08T17:41:15.545Z,27.55
2023-02-08T17:43:41.997Z,26.77
2023-02-08T17:46:13.288Z,27.00
2023-02-08T17:48:40.004Z,26.08
2023-02-08T17:51:10.408Z,26.35
2023-02-08T17:53:40.676Z,24.55
2023-02-08T17:56:10.170Z,24.95
2023-02-08T17:58:37.661Z,25.27
2023-02-08T18:01:04.801Z,25.92
2023-02-08T18:03:31.523Z,26.10
2023-02-08T18:06:01.302Z,27.02
2023-02-08T18:08:28.131Z,26.65
2023-02-08T18:10:54.660Z,26.52
2023-02-08T18:13:21.103Z,25.98
2023-02-08T18:15:48.600Z,27.30
2023-02-08T18:18:15.592Z,25.50
2023-02-08T18:20:46.394Z,25.58
2023-02-08T18:23:13.595Z,21.08
2023-02-08T18:25:41.468Z,25.80
2023-02-08T18:30:43.820Z,25.35
2023-02-08T18:33:10.762Z,25.45
2023-02-08T18:35:37.805Z,25.63
2023-02-08T18:38:04.531Z,25.05
2023-02-08T18:40:32.271Z,23.98
2023-02-08T18:42:58.855Z,25.88
2023-02-08T18:45:25.410Z,24.80
2023-02-08T18:47:51.929Z,24.98
2023-02-08T18:50:18.527Z,24.30
2023-02-08T18:52:44.960Z,25.17
2023-02-08T18:55:11.419Z,24.85
2023-02-08T18:57:39.884Z,25.30
2023-02-08T19:00:07.243Z,23.98
2023-02-08T19:02:33.917Z,26.27
2023-02-08T19:05:00.348Z,27.48
2023-02-08T19:07:26.823Z,24.98
2023-02-08T19:09:54.132Z,26.65
2023-02-08T19:12:21.406Z,25.50
2023-02-08T19:14:51.029Z,25.15
2023-02-08T19:17:18.089Z,26.63
2023-02-08T19:19:44.890Z,26.83
2023-02-08T19:22:11.686Z,26.30
2023-02-08T19:24:39.045Z,24.77
2023-02-08T19:27:05.672Z,25.20
2023-02-08T19:29:34.433Z,24.92
2023-02-08T19:32:01.620Z,25.63
2023-02-08T19:34:28.192Z,25.08
2023-02-08T19:36:55.278Z,26.92
2023-02-08T19:39:25.095Z,25.73
2023-02-08T19:41:52.832Z,24.23
2023-02-08T19:44:20.413Z,25.10
2023-02-08T19:46:56.892Z,24.42
2023-02-08T19:49:25.669Z,25.65
2023-02-08T19:51:52.374Z,24.88
2023-02-08T19:54:19.543Z,25.33
2023-02-08T19:56:46.872Z,23.48
2023-02-08T19:59:23.140Z,23.83
2023-02-08T20:01:50.317Z,23.83
2023-02-08T20:04:16.886Z,24.27
2023-02-08T20:06:45.181Z,23.33
2023-02-08T20:09:15.116Z,23.70
2023-02-08T20:11:55.883Z,24.00
2023-02-08T20:16:50.274Z,23.30
2023-02-08T20:19:16.740Z,23.33
2023-02-08T20:21:45.240Z,23.98
2023-02-08T20:24:11.952Z,24.25
2023-02-08T20:26:41.272Z,23.30
2023-02-08T20:29:09.017Z,22.60
2023-02-08T20:31:37.975Z,23.38
2023-02-08T20:34:07.162Z,22.98
2023-02-08T20:36:47.710Z,25.27
2023-02-08T20:39:19.434Z,23.17
2023-02-08T20:41:47.406Z,25.40
2023-02-08T20:44:16.849Z,23.75
2023-02-08T20:46:44.402Z,24.98
2023-02-08T20:49:13.959Z,24.75
2023-02-08T20:51:40.573Z,24.30
2023-02-08T20:54:07.039Z,24.20
2023-02-08T20:56:35.777Z,24.33
2023-02-08T20:59:07.227Z,24.63
2023-02-08T21:01:35.076Z,23.42
2023-02-08T21:04:02.508Z,24.58
2023-02-08T21:06:34.798Z,21.77
2023-02-08T21:09:13.357Z,23.48
2023-02-08T21:11:40.252Z,21.90
2023-02-08T21:14:07.668Z,20.73
2023-02-08T21:16:34.331Z,22.02
2023-02-08T21:19:00.834Z,20.17
2023-02-08T21:21:28.095Z,21.73
2023-02-08T21:23:56.764Z,21.05
2023-02-08T21:26:24.309Z,20.65
2023-02-08T21:28:56.221Z,21.05
2023-02-08T21:31:25.157Z,17.67
2023-02-08T21:33:52.574Z,19.73
2023-02-08T21:36:23.661Z,19.92
2023-02-08T21:38:50.416Z,20.25
2023-02-08T21:41:22.841Z,19.58
2023-02-08T21:43:51.049Z,20.70
2023-02-08T21:46:17.857Z,19.02
2023-02-08T21:49:03.367Z,17.65
2023-02-08T21:51:48.056Z,18.85
2023-02-08T21:54:36.026Z,19.88
2023-02-08T21:57:04.380Z,18.95
2023-02-08T21:59:37.110Z,18.55
2023-02-08T22:02:08.330Z,20.25
2023-02-08T22:04:36.694Z,19.23
2023-02-08T22:07:07.025Z,19.08
2023-02-08T22:09:35.883Z,19.55
2023-02-08T22:12:02.525Z,18.83
2023-02-08T22:14:29.040Z,19.15
2023-02-08T22:16:55.501Z,18.67
2023-02-08T22:19:22.042Z,19.15
2023-02-08T22:21:48.471Z,19.40
2023-02-08T22:24:14.969Z,20.02
2023-02-08T22:26:41.537Z,20.33
2023-02-08T22:29:08.000Z,19.75
2023-02-08T22:31:34.583Z,19.95
2023-02-08T22:34:01.165Z,20.48
2023-02-08T22:36:27.638Z,20.10
2023-02-08T22:38:54.235Z,20.25
2023-02-08T22:41:20.898Z,19.33
2023-02-08T22:43:48.461Z,18.73
2023-02-08T22:46:15.180Z,21.52
2023-02-08T22:48:42.225Z,18.95
2023-02-08T22:51:11.312Z,19.80
2023-02-08T22:53:38.162Z,19.70
2023-02-08T22:56:06.185Z,19.50
2023-02-08T22:58:32.836Z,20.25
2023-02-08T23:00:59.660Z,17.77
2023-02-08T23:03:26.251Z,19.92
2023-02-08T23:05:53.377Z,20.02
2023-02-08T23:08:21.429Z,19.77
2023-02-08T23:10:48.217Z,19.55
2023-02-08T23:13:14.709Z,20.02
2023-02-08T23:15:43.846Z,19.42
2023-02-08T23:18:10.787Z,20.98
2023-02-08T23:20:39.351Z,19.05
2023-02-08T23:23:05.855Z,18.58
2023-02-08T23:25:32.991Z,20.63
2023-02-08T23:27:59.527Z,20.05
2023-02-08T23:30:26.083Z,19.10
2023-02-08T23:32:52.608Z,18.05
2023-02-08T23:35:19.062Z,19.67
2023-02-08T23:37:45.631Z,19.38
2023-02-08T23:40:12.357Z,18.95
2023-02-08T23:42:38.966Z,20.20
2023-02-08T23:45:06.281Z,20.10
2023-02-08T23:47:33.071Z,19.50
2023-02-08T23:49:59.687Z,19.23
2023-02-08T23:52:26.315Z,19.33
2023-02-08T23:54:52.830Z,19.13
2023-02-08T23:57:19.525Z,20.02
2023-02-08T23:59:46.045Z,19.77
